Date,TemperatureHighF,TemperatureAvgF,TemperatureLowF,DewpointHighF,DewpointAvgF,DewpointLowF,HumidityHigh,HumidityAvg,HumidityLow,PressureMaxIn,PressureMinIn,WindSpeedMaxMPH,WindSpeedAvgMPH,GustSpeedMaxMPH,PrecipitationSumIn
2013-1-1,66.9,58.1,49.5,66.3,57.6,48.9,98,98,98,29.92,29.71,12,3,0,1.98
2013-1-2,49.5,44.4,39.4,48.9,43.9,38.9,98,98,98,30.08,29.90,9,4,0,0.08
2013-1-3,53.6,42.5,36.1,45.3,39.8,35.6,98,91,64,30.22,30.05,12,4,0,0.00
2013-1-4,59.2,45.6,34.0,45.3,38.5,33.5,98,79,46,30.30,30.16,10,3,0,0.00
2013-1-5,54.7,47.8,43.3,50.7,44.9,41.9,98,91,69,30.18,30.04,8,3,0,0.02
2013-1-6,51.6,46.2,40.5,51.1,45.7,39.9,98,98,98,30.12,30.00,8,3,0,0.98
2013-1-7,61.3,48.4,35.2,54.5,45.3,34.7,98,90,58,30.14,29.98,8,3,0,0.00
2013-1-8,63.3,56.7,49.8,62.7,56.2,49.3,98,98,98,30.02,29.86,9,4,0,4.78
2013-1-9,66.9,64.5,61.2,66.3,63.9,60.6,98,98,98,29.98,29.89,11,4,0,2.68
2013-1-10,68.7,66.3,63.5,68.1,65.7,62.9,98,98,98,29.96,29.79,11,4,0,2.35
2013-1-11,71.4,67.6,63.9,70.8,67.0,63.3,98,98,98,29.90,29.79,5,2,0,0.53
2013-1-12,79.9,73.0,69.3,79.3,72.4,68.7,98,98,98,29.84,29.70,10,4,0,0.01
2013-1-13,78.1,64.0,46.6,77.5,63.4,46.0,98,98,98,29.92,29.61,11,5,0,2.73
2013-1-14,46.6,42.7,37.0,46.0,42.2,36.5,98,98,98,29.98,29.87,12,5,0,2.60
2013-1-15,44.6,41.7,37.9,44.1,41.2,37.4,98,98,98,29.90,29.78,7,4,0,1.45
2013-1-16,37.6,36.7,35.6,37.1,36.1,35.1,98,98,98,29.99,29.84,9,4,0,0.24
2013-1-17,55.0,42.7,33.4,46.2,39.1,32.9,98,89,60,30.25,29.98,9,3,0,0.01
2013-1-18,61.2,44.5,34.9,48.4,39.2,34.4,98,85,46,30.35,30.21,8,2,0,0.00
2013-1-19,66.6,48.2,33.4,58.3,45.6,32.9,98,92,68,30.21,30.04,5,1,0,0.00
2013-1-20,67.5,47.0,35.8,56.8,43.4,35.3,98,90,50,30.09,29.96,6,1,0,0.00
2013-1-21,69.8,53.1,38.1,59.2,48.6,37.6,98,87,56,30.04,29.95,7,2,0,0.00
2013-1-22,69.3,51.4,43.2,55.1,47.0,42.6,98,87,56,30.18,30.03,7,2,0,0.00
2013-1-23,72.9,55.8,38.5,62.9,50.3,38.0,98,85,48,30.21,30.09,11,2,0,0.00
2013-1-24,75.2,61.3,44.6,74.1,60.5,44.1,98,97,87,30.15,30.02,6,3,0,0.00
2013-1-25,68.5,64.6,55.0,68.0,64.0,54.5,98,98,98,30.04,29.95,6,4,0,0.00
2013-1-26,77.9,62.4,53.8,73.7,60.9,53.2,98,95,73,30.06,29.96,7,1,0,0.16
2013-1-27,77.5,62.6,49.5,73.9,61.6,48.9,98,97,79,30.07,29.97,8,2,0,0.00
2013-1-28,77.4,66.0,57.6,76.7,65.5,57.0,98,98,98,30.05,29.91,6,2,0,0.00
2013-1-29,81.1,72.4,64.9,80.5,71.8,64.4,98,98,98,29.92,29.55,15,5,0,0.00
2013-1-30,74.5,57.8,38.1,73.9,52.5,37.6,98,84,51,30.01,29.47,15,6,0,1.15
2013-1-31,64.2,48.1,31.8,48.6,37.8,31.3,98,72,35,30.15,30.01,7,2,0,0.00
2013-2-1,67.8,51.0,40.1,51.1,45.0,39.6,98,83,43,30.23,30.10,6,2,0,0.00
2013-2-2,73.8,55.5,39.4,62.2,51.6,38.9,98,89,52,30.15,29.98,7,2,0,0.00
2013-2-3,71.8,56.1,42.6,58.6,45.4,30.5,98,75,22,30.11,29.92,6,2,0,0.00
2013-2-4,62.8,52.6,41.4,62.2,52.1,40.8,98,98,98,29.92,29.75,6,2,0,0.07
2013-2-5,75.9,61.6,54.0,75.3,61.0,53.4,98,98,98,29.84,29.74,5,1,0,0.01
2013-2-6,66.6,58.6,51.6,66.0,58.1,51.1,98,98,98,29.93,29.78,8,2,0,0.14
2013-2-7,73.4,61.3,53.4,72.8,60.7,52.9,98,98,98,29.78,29.63,13,3,0,1.44
2013-2-8,71.1,59.6,53.4,70.5,59.1,52.9,98,98,98,29.99,29.77,12,3,0,0.00
2013-2-9,66.7,57.7,49.3,66.2,57.2,48.7,98,98,98,30.04,29.85,10,4,0,0.00
2013-2-10,61.3,61.3,61.3,60.8,60.8,60.8,98,98,98,29.85,29.85,3,3,0,0.00
2013-2-11,61.3,61.3,61.3,60.8,60.8,60.8,98,98,98,29.85,29.85,3,3,0,0.00
2013-2-12,67.8,61.4,54.9,67.2,60.9,54.3,98,98,98,29.85,29.53,8,3,0,0.16
2013-2-13,59.0,50.8,39.0,56.3,50.0,38.5,98,97,82,29.89,29.69,7,3,0,0.00
2013-2-14,38.8,37.6,36.9,38.3,37.1,36.3,98,98,98,29.90,29.88,2,0,0,0.00
2013-2-15,67.8,56.6,50.2,53.4,49.2,46.5,98,78,50,30.01,29.89,7,4,0,0.00
2013-2-16,56.3,46.3,33.3,49.3,36.6,26.5,98,74,38,30.15,30.00,16,4,0,0.00
2013-2-17,65.1,48.6,31.5,51.1,41.7,31.0,98,80,50,30.16,30.01,8,3,0,0.00
2013-2-18,66.4,56.1,41.7,65.8,55.6,41.2,98,98,98,30.03,29.75,11,3,0,0.56
2013-2-19,67.1,58.3,45.7,62.9,48.8,35.2,98,75,35,30.06,29.76,12,5,0,0.91
2013-2-20,62.6,51.3,41.2,51.6,41.4,34.7,98,72,41,30.07,29.83,13,5,0,0.00
2013-2-21,71.8,62.0,50.9,71.2,61.3,48.7,98,98,92,29.82,29.54,14,6,0,0.42
2013-2-22,71.4,62.1,54.3,70.8,61.1,53.8,98,97,75,29.79,29.65,8,4,0,0.59
2013-2-23,64.6,56.2,51.1,64.0,55.7,50.5,98,98,98,29.78,29.68,7,3,0,0.00
2013-2-24,72.5,58.0,42.6,70.8,57.0,42.1,98,97,82,29.79,29.55,13,4,0,1.16
2013-2-25,66.2,62.5,56.1,65.6,61.3,49.0,98,96,74,29.56,29.23,11,5,0,2.10
2013-2-26,62.4,52.9,46.4,52.6,46.9,42.3,98,81,64,29.74,29.38,15,5,0,0.00
2013-2-27,72.9,57.3,42.4,58.2,48.4,41.9,98,76,41,29.87,29.73,9,3,0,0.00
2013-2-28,53.4,47.6,40.3,46.0,41.2,37.2,98,80,57,29.99,29.87,9,3,0,0.00
2013-3-1,60.8,47.9,35.6,46.6,40.2,35.1,98,78,44,29.99,29.89,11,3,0,0.00
2013-3-2,47.5,38.6,28.9,41.0,34.2,28.4,98,85,66,30.08,29.98,11,3,0,0.00
2013-3-3,49.3,35.2,25.5,44.6,32.8,25.0,98,92,58,30.12,29.93,4,1,0,0.00
2013-3-4,73.2,57.2,35.1,68.7,55.2,34.6,98,94,73,29.93,29.72,19,5,0,0.00
2013-3-5,76.6,65.4,52.9,72.1,58.4,41.4,98,81,42,30.03,29.70,9,4,0,0.00
2013-3-6,68.0,51.9,35.4,41.7,35.0,28.3,98,56,25,30.17,30.02,8,4,0,0.00
2013-3-7,69.6,49.7,32.7,50.4,41.9,32.2,98,79,38,30.18,30.04,8,2,0,0.00
2013-3-8,74.7,55.2,36.9,58.8,47.4,36.3,98,79,43,30.12,29.96,6,1,0,0.00
2013-3-9,71.1,61.1,48.6,70.5,60.5,48.0,98,98,98,29.97,29.75,9,3,0,0.00
2013-3-10,79.0,69.5,57.9,78.4,68.6,57.4,98,97,94,29.76,29.66,18,5,0,0.01
2013-3-11,64.2,51.4,42.4,55.9,47.7,41.9,98,89,55,29.86,29.71,9,4,0,2.91
2013-3-12,72.0,52.4,35.1,54.3,43.8,34.6,98,77,39,30.04,29.86,7,2,0,0.00
2013-3-13,69.6,54.0,39.4,49.1,37.9,27.0,98,62,21,30.23,30.04,13,4,0,0.00
2013-3-14,65.3,50.7,40.6,53.2,45.2,32.6,98,83,46,30.21,30.10,3,1,0,0.00
2013-3-15,78.4,60.1,41.5,61.3,51.2,41.0,98,78,40,30.13,29.93,11,3,0,0.00
2013-3-16,79.5,64.0,46.8,72.4,59.5,46.2,98,88,56,29.94,29.74,10,3,0,0.00
2013-3-17,81.1,67.4,54.1,78.9,65.6,53.6,98,94,75,29.77,29.60,11,3,0,0.00
2013-3-18,85.1,74.7,68.0,82.1,73.2,67.4,98,95,78,29.73,29.55,12,4,0,0.00
2013-3-19,83.3,66.6,52.9,67.4,58.9,52.3,98,80,46,29.84,29.73,12,4,0,0.00
2013-3-20,73.2,60.7,49.3,60.1,46.4,33.4,98,64,27,30.00,29.81,9,4,0,0.01
2013-3-21,48.7,46.9,45.9,45.7,42.2,37.4,98,84,67,29.88,29.84,2,0,0,0.00
2013-3-22,80.4,69.7,47.3,79.8,69.0,41.8,98,98,81,29.66,29.54,6,2,0,0.00
2013-3-23,71.8,68.1,66.0,71.2,67.5,65.4,98,98,98,29.63,29.36,5,3,0,0.00
2013-3-24,69.4,59.8,46.6,68.8,47.4,38.4,98,66,40,29.85,29.62,20,6,0,0.00
2013-3-25,63.1,45.4,34.7,41.9,36.2,31.3,98,75,32,30.09,29.86,10,3,0,0.00
2013-3-26,59.2,45.8,32.0,40.7,33.4,29.7,98,65,38,30.48,30.09,9,3,0,0.00
2013-3-27,71.1,48.3,29.8,48.4,37.9,29.3,98,74,29,30.27,30.08,8,2,0,0.00
2013-3-28,76.6,55.7,36.0,56.3,46.0,35.5,98,75,37,30.18,30.03,7,2,0,0.00
2013-3-29,79.9,60.2,42.3,66.5,54.0,41.7,98,83,46,30.13,29.98,9,2,0,0.00
2013-3-30,79.7,64.1,50.4,73.2,61.6,49.8,98,93,65,30.01,29.82,11,3,0,0.01
2013-3-31,78.4,64.6,56.3,77.8,64.1,55.7,98,98,98,29.85,29.72,8,2,0,0.00
2013-4-1,69.6,68.7,66.2,69.0,68.0,65.6,98,98,98,29.90,29.89,6,4,0,0.00
2013-4-2,67.6,66.7,66.2,67.1,66.1,65.6,98,98,98,29.79,29.76,5,3,0,0.00
2013-4-3,65.3,63.4,61.5,64.7,62.8,60.9,98,98,98,29.75,29.59,10,4,0,1.52
2013-4-4,49.8,49.1,48.7,49.3,48.5,48.2,98,98,98,29.87,29.84,7,4,0,0.00
2013-4-5,72.7,55.4,47.5,65.6,53.3,46.9,98,93,63,30.01,29.86,11,3,0,0.00
2013-4-6,78.6,61.3,43.2,68.5,56.8,42.6,98,87,59,29.95,29.83,8,2,0,0.00
2013-4-7,80.2,66.2,53.2,77.3,64.4,52.7,98,94,74,29.88,29.75,9,2,0,0.00
2013-4-8,84.7,70.2,56.1,82.0,68.9,55.6,98,96,79,29.81,29.70,9,2,0,0.00
2013-4-9,87.6,77.3,70.7,87.0,76.7,70.1,98,98,98,29.79,29.70,10,4,0,0.00
2013-4-10,85.6,79.0,73.9,85.0,78.3,73.3,98,98,98,29.76,29.60,9,3,0,0.00
2013-4-11,77.2,65.7,50.5,76.6,65.1,50.0,98,98,98,29.65,29.48,8,2,0,1.83
2013-4-12,80.2,59.8,43.9,65.1,53.4,43.4,98,83,43,29.82,29.66,6,1,0,0.00
2013-4-13,81.5,65.2,48.7,64.8,57.2,48.2,98,79,48,29.85,29.68,9,2,0,0.14
2013-4-14,81.0,65.5,57.7,80.0,64.9,57.2,98,98,96,29.68,29.53,12,3,0,3.89
2013-4-15,82.0,71.6,61.2,81.4,71.0,60.6,98,98,98,29.77,29.61,7,2,0,0.00
2013-4-16,86.2,78.1,72.9,85.5,77.5,72.3,98,98,98,29.88,29.75,6,2,0,0.01
2013-4-17,86.7,78.3,72.5,86.1,77.7,71.9,98,98,98,29.87,29.73,8,3,0,0.00
2013-4-18,85.1,77.4,58.1,84.5,76.8,57.5,98,98,98,29.73,29.56,11,4,0,0.06
2013-4-19,65.7,54.2,44.8,57.9,50.9,44.2,98,90,57,30.01,29.71,9,3,0,0.28
2013-4-20,73.4,55.4,38.5,58.6,48.5,38.0,98,81,45,30.09,29.92,9,2,0,0.00
2013-4-21,76.8,60.6,43.7,65.8,53.0,43.2,98,80,46,30.03,29.90,8,2,0,0.00
2013-4-22,82.4,66.3,49.1,75.5,61.2,48.6,98,86,58,29.95,29.80,8,2,0,0.00
2013-4-23,87.1,74.8,65.5,85.1,74.0,64.9,98,97,86,29.87,29.75,7,3,0,0.00
2013-4-24,71.6,65.1,56.8,71.0,64.6,56.3,98,98,98,30.01,29.79,11,3,0,1.77
2013-4-25,75.2,62.2,52.3,69.7,58.6,51.8,98,89,57,30.14,30.01,8,4,0,0.00
2013-4-26,80.6,68.3,54.0,80.0,66.7,53.4,98,95,70,30.08,29.99,7,2,0,0.00
2013-4-27,86.5,74.8,64.6,83.6,72.8,64.0,98,94,71,30.00,29.81,7,2,0,0.00
2013-4-28,80.8,72.0,63.7,80.2,71.4,63.1,98,98,98,29.86,29.72,7,1,0,0.45
2013-4-29,85.8,72.0,58.3,80.3,68.7,57.7,98,90,60,29.78,29.66,5,1,0,0.00
2013-4-30,75.7,68.6,62.6,75.1,68.0,62.0,98,98,98,29.72,29.63,8,2,0,0.14
2013-5-1,81.7,71.8,66.2,81.1,71.2,65.6,98,98,98,29.71,29.62,6,3,0,0.05
2013-5-2,79.2,70.2,65.7,78.5,69.6,65.1,98,98,98,29.77,29.67,6,2,0,0.19
2013-5-3,68.0,56.7,43.3,67.4,56.2,42.8,98,98,98,29.87,29.71,9,3,0,0.13
2013-5-4,77.0,58.7,39.4,62.7,50.9,38.9,98,80,41,29.85,29.67,14,2,0,0.00
2013-5-5,68.4,57.9,47.8,59.3,53.2,47.3,98,85,60,29.86,29.70,10,3,0,0.00
2013-5-6,82.0,62.9,45.9,67.6,57.3,45.3,98,84,55,29.87,29.74,11,2,0,0.00
2013-5-7,87.4,70.0,53.2,76.8,63.7,52.7,98,83,51,29.87,29.78,7,1,0,0.00
2013-5-8,86.9,72.3,55.8,80.5,67.9,55.2,98,88,58,29.91,29.83,5,2,0,0.00
2013-5-9,84.7,73.9,60.6,83.3,72.8,60.1,98,97,79,29.90,29.80,6,2,0,0.00
2013-5-10,72.9,68.8,66.0,72.3,68.3,65.4,98,98,98,29.87,29.68,11,2,0,3.15
2013-5-11,66.2,66.2,66.2,65.6,65.6,65.6,98,98,98,29.78,29.78,0,0,0,0.00
2013-5-12,66.2,66.2,66.2,65.6,65.6,65.6,98,98,98,29.78,29.78,0,0,0,0.00
2013-5-13,66.2,66.2,66.2,65.6,65.6,65.6,98,98,98,29.78,29.78,0,0,0,0.00
2013-5-14,66.2,66.2,66.2,65.6,65.6,65.6,98,98,98,29.78,29.78,0,0,0,0.00
2013-5-15,66.2,66.2,66.2,65.6,65.6,65.6,98,98,98,29.78,29.78,0,0,0,0.00
2013-5-16,88.5,78.1,66.2,82.7,74.4,65.6,98,90,63,63.77,29.69,7,3,0,0.00
2013-5-17,89.1,79.0,69.8,88.4,78.4,69.2,98,98,98,29.82,29.74,9,3,0,0.01
2013-5-18,78.6,75.4,74.3,78.0,74.8,73.7,98,98,98,29.84,29.77,4,2,0,0.00
2013-5-19,91.2,83.7,76.5,90.2,83.1,75.9,98,98,97,29.79,29.73,9,3,0,0.00
2013-5-20,93.4,82.5,73.8,92.7,81.9,73.2,98,98,98,29.80,29.68,7,3,0,0.00
2013-5-21,91.6,82.4,75.2,90.9,81.7,74.6,98,98,98,29.76,29.59,8,3,0,0.00
2013-5-22,88.3,74.8,67.5,87.7,74.2,66.9,98,98,98,29.80,29.67,8,2,0,3.44
2013-5-23,94.8,77.6,66.6,91.1,76.4,66.0,98,96,73,29.85,29.76,5,1,0,0.92
2013-5-24,90.5,78.2,65.5,89.9,77.6,64.9,98,98,98,29.96,29.84,8,2,0,0.01
2013-5-25,88.2,77.4,66.9,84.8,74.0,66.3,98,90,70,30.03,29.91,9,3,0,0.00
2013-5-26,87.4,76.8,67.5,86.8,75.8,66.9,98,97,81,29.99,29.89,7,2,0,0.00
2013-5-27,93.2,79.0,65.3,85.4,75.7,64.7,98,91,69,29.93,29.79,7,2,0,0.00
2013-5-28,87.3,77.8,68.0,86.6,77.2,67.4,98,98,98,29.88,29.77,7,2,0,0.00
2013-5-29,85.5,76.4,67.6,84.8,75.8,67.1,98,98,98,29.82,29.72,10,2,0,0.09
2013-5-30,87.3,79.7,73.9,86.6,79.0,73.3,98,98,98,29.80,29.71,9,3,0,0.37
2013-5-31,91.4,81.4,74.3,90.8,80.7,73.7,98,98,98,29.80,29.72,7,2,0,0.19
2013-6-1,93.6,83.1,72.3,92.9,82.3,71.7,98,98,82,29.77,29.68,5,2,0,0.00
2013-6-2,90.0,78.6,69.1,89.3,78.0,68.5,98,98,98,29.83,29.67,8,2,0,0.05
2013-6-3,93.2,82.6,72.0,91.5,81.8,71.4,98,97,86,29.75,29.64,6,1,0,0.00
2013-6-4,94.8,84.0,73.2,92.4,82.9,72.6,98,96,76,29.74,29.64,5,2,0,0.00
2013-6-5,93.7,83.5,73.8,93.1,82.8,73.2,98,98,98,29.72,29.59,9,2,0,0.00
2013-6-6,91.4,80.8,70.7,90.8,80.0,70.1,98,98,77,29.69,29.57,11,2,0,0.18
2013-6-7,95.0,79.5,70.7,88.1,77.9,70.1,98,95,69,29.71,29.60,5,2,0,0.04
2013-6-8,92.7,79.1,69.6,89.1,78.3,69.0,98,98,81,29.77,29.68,10,2,0,0.00
2013-6-9,93.2,78.9,72.1,89.5,77.5,71.5,98,96,76,29.78,29.67,7,2,0,0.27
2013-6-10,94.1,82.3,72.3,93.4,81.6,71.7,98,98,98,29.83,29.76,9,2,0,0.00
2013-6-11,96.6,85.6,74.3,92.4,83.6,73.7,98,94,68,29.90,29.80,6,1,0,0.00
2013-6-12,103.5,85.1,74.1,90.6,81.2,73.5,98,89,57,29.89,29.80,5,1,0,0.00
2013-6-13,79.5,77.2,75.4,78.9,76.6,74.8,98,98,98,29.85,29.82,2,0,0,0.00
2013-6-16,77.0,76.4,76.1,76.4,75.8,75.5,98,98,98,29.81,29.77,0,0,0,0.00